sensor_id;sensor_type;location;lat;lon;timestamp;P1;durP1;ratioP1;P2;durP2;ratioP2
12122;SDS011;6125;59.628;17.852;2023-07-13T00:01:52;3.47;;;2.93;;
12122;SDS011;6125;59.628;17.852;2023-07-13T00:04:20;6.87;;;3.20;;
12122;SDS011;6125;59.628;17.852;2023-07-13T00:06:50;3.57;;;3.20;;
12122;SDS011;6125;59.628;17.852;2023-07-13T00:09:18;4.33;;;2.70;;
12122;SDS011;6125;59.628;17.852;2023-07-13T00:11:50;3.97;;;3.00;;
12122;SDS011;6125;59.628;17.852;2023-07-13T00:14:20;3.57;;;2.83;;
12122;SDS011;6125;59.628;17.852;2023-07-13T00:16:48;8.03;;;2.87;;
12122;SDS011;6125;59.628;17.852;2023-07-13T00:19:15;3.67;;;3.00;;
12122;SDS011;6125;59.628;17.852;2023-07-13T00:21:43;2.87;;;2.67;;
12122;SDS011;6125;59.628;17.852;2023-07-13T00:24:11;3.53;;;3.23;;
12122;SDS011;6125;59.628;17.852;2023-07-13T00:26:40;4.50;;;2.97;;
12122;SDS011;6125;59.628;17.852;2023-07-13T00:29:09;3.73;;;2.90;;
12122;SDS011;6125;59.628;17.852;2023-07-13T00:31:38;4.73;;;3.10;;
12122;SDS011;6125;59.628;17.852;2023-07-13T00:34:05;3.53;;;2.83;;
12122;SDS011;6125;59.628;17.852;2023-07-13T00:36:33;3.50;;;2.87;;
12122;SDS011;6125;59.628;17.852;2023-07-13T00:39:00;3.60;;;2.97;;
12122;SDS011;6125;59.628;17.852;2023-07-13T00:41:29;3.03;;;2.70;;
12122;SDS011;6125;59.628;17.852;2023-07-13T00:43:56;4.27;;;3.37;;
12122;SDS011;6125;59.628;17.852;2023-07-13T00:46:25;4.47;;;2.90;;
12122;SDS011;6125;59.628;17.852;2023-07-13T00:48:54;7.37;;;2.70;;
12122;SDS011;6125;59.628;17.852;2023-07-13T00:51:36;3.97;;;2.73;;
12122;SDS011;6125;59.628;17.852;2023-07-13T00:54:08;2.70;;;2.50;;
12122;SDS011;6125;59.628;17.852;2023-07-13T00:56:39;4.73;;;2.67;;
12122;SDS011;6125;59.628;17.852;2023-07-13T00:59:08;3.40;;;2.83;;
12122;SDS011;6125;59.628;17.852;2023-07-13T01:01:37;2.77;;;2.47;;
12122;SDS011;6125;59.628;17.852;2023-07-13T01:04:06;3.63;;;2.50;;
12122;SDS011;6125;59.628;17.852;2023-07-13T01:06:34;2.77;;;2.50;;
12122;SDS011;6125;59.628;17.852;2023-07-13T01:09:02;2.70;;;2.50;;
12122;SDS011;6125;59.628;17.852;2023-07-13T01:11:31;3.43;;;2.67;;
12122;SDS011;6125;59.628;17.852;2023-07-13T01:13:58;4.27;;;2.40;;
12122;SDS011;6125;59.628;17.852;2023-07-13T01:16:28;2.73;;;2.53;;
12122;SDS011;6125;59.628;17.852;2023-07-13T01:18:57;2.80;;;2.50;;
12122;SDS011;6125;59.628;17.852;2023-07-13T01:21:28;5.50;;;2.80;;
12122;SDS011;6125;59.628;17.852;2023-07-13T01:23:58;3.87;;;2.20;;
12122;SDS011;6125;59.628;17.852;2023-07-13T01:26:25;3.33;;;2.60;;
12122;SDS011;6125;59.628;17.852;2023-07-13T01:28:53;3.87;;;2.47;;
12122;SDS011;6125;59.628;17.852;2023-07-13T01:31:22;3.33;;;2.40;;
12122;SDS011;6125;59.628;17.852;2023-07-13T01:33:49;6.03;;;2.50;;
12122;SDS011;6125;59.628;17.852;2023-07-13T01:36:16;3.77;;;2.60;;
12122;SDS011;6125;59.628;17.852;2023-07-13T01:38:47;3.73;;;2.83;;
12122;SDS011;6125;59.628;17.852;2023-07-13T01:41:14;3.40;;;2.53;;
12122;SDS011;6125;59.628;17.852;2023-07-13T01:43:42;3.50;;;2.53;;
12122;SDS011;6125;59.628;17.852;2023-07-13T01:46:09;2.90;;;2.20;;
12122;SDS011;6125;59.628;17.852;2023-07-13T01:48:37;3.00;;;2.63;;
12122;SDS011;6125;59.628;17.852;2023-07-13T01:51:04;2.77;;;2.53;;
12122;SDS011;6125;59.628;17.852;2023-07-13T01:53:31;2.90;;;2.40;;
12122;SDS011;6125;59.628;17.852;2023-07-13T01:56:00;2.60;;;2.40;;
12122;SDS011;6125;59.628;17.852;2023-07-13T01:58:27;3.70;;;2.23;;
12122;SDS011;6125;59.628;17.852;2023-07-13T02:00:54;2.50;;;2.30;;
12122;SDS011;6125;59.628;17.852;2023-07-13T02:03:22;3.13;;;2.30;;
12122;SDS011;6125;59.628;17.852;2023-07-13T02:05:49;3.10;;;2.53;;
12122;SDS011;6125;59.628;17.852;2023-07-13T02:08:16;4.03;;;2.50;;
12122;SDS011;6125;59.628;17.852;2023-07-13T02:10:43;3.53;;;2.50;;
12122;SDS011;6125;59.628;17.852;2023-07-13T02:13:12;5.13;;;2.63;;
12122;SDS011;6125;59.628;17.852;2023-07-13T02:15:40;3.77;;;2.37;;
12122;SDS011;6125;59.628;17.852;2023-07-13T02:18:07;3.00;;;2.63;;
12122;SDS011;6125;59.628;17.852;2023-07-13T02:20:35;2.67;;;2.47;;
12122;SDS011;6125;59.628;17.852;2023-07-13T02:23:02;2.90;;;2.60;;
12122;SDS011;6125;59.628;17.852;2023-07-13T02:25:29;6.27;;;2.80;;
12122;SDS011;6125;59.628;17.852;2023-07-13T02:27:56;2.97;;;2.53;;
12122;SDS011;6125;59.628;17.852;2023-07-13T02:30:25;3.93;;;2.70;;
12122;SDS011;6125;59.628;17.852;2023-07-13T02:32:55;7.30;;;2.90;;
12122;SDS011;6125;59.628;17.852;2023-07-13T02:35:22;5.43;;;3.00;;
12122;SDS011;6125;59.628;17.852;2023-07-13T02:37:49;4.50;;;2.67;;
12122;SDS011;6125;59.628;17.852;2023-07-13T02:40:16;4.17;;;2.90;;
12122;SDS011;6125;59.628;17.852;2023-07-13T02:42:44;4.90;;;3.07;;
12122;SDS011;6125;59.628;17.852;2023-07-13T02:45:11;6.07;;;3.00;;
12122;SDS011;6125;59.628;17.852;2023-07-13T02:47:41;3.17;;;2.83;;
12122;SDS011;6125;59.628;17.852;2023-07-13T02:50:09;6.73;;;3.20;;
12122;SDS011;6125;59.628;17.852;2023-07-13T02:52:36;4.67;;;2.90;;
12122;SDS011;6125;59.628;17.852;2023-07-13T02:55:03;5.57;;;3.60;;
12122;SDS011;6125;59.628;17.852;2023-07-13T02:57:31;3.30;;;3.00;;
12122;SDS011;6125;59.628;17.852;2023-07-13T02:59:59;4.47;;;2.90;;
12122;SDS011;6125;59.628;17.852;2023-07-13T03:02:30;6.80;;;3.23;;
12122;SDS011;6125;59.628;17.852;2023-07-13T03:04:59;6.73;;;3.57;;
12122;SDS011;6125;59.628;17.852;2023-07-13T03:07:26;4.00;;;3.17;;
12122;SDS011;6125;59.628;17.852;2023-07-13T03:09:54;4.23;;;3.03;;
12122;SDS011;6125;59.628;17.852;2023-07-13T03:12:22;4.83;;;3.10;;
12122;SDS011;6125;59.628;17.852;2023-07-13T03:14:49;4.30;;;3.30;;
12122;SDS011;6125;59.628;17.852;2023-07-13T03:17:17;3.90;;;2.93;;
12122;SDS011;6125;59.628;17.852;2023-07-13T03:19:44;5.43;;;3.60;;
12122;SDS011;6125;59.628;17.852;2023-07-13T03:22:16;7.27;;;3.07;;
12122;SDS011;6125;59.628;17.852;2023-07-13T03:24:43;6.53;;;3.30;;
12122;SDS011;6125;59.628;17.852;2023-07-13T03:27:10;6.03;;;3.03;;
12122;SDS011;6125;59.628;17.852;2023-07-13T03:29:38;6.87;;;3.47;;
12122;SDS011;6125;59.628;17.852;2023-07-13T03:32:06;4.77;;;2.97;;
12122;SDS011;6125;59.628;17.852;2023-07-13T03:34:33;6.93;;;3.00;;
12122;SDS011;6125;59.628;17.852;2023-07-13T03:37:00;6.23;;;3.23;;
12122;SDS011;6125;59.628;17.852;2023-07-13T03:39:29;4.00;;;3.40;;
12122;SDS011;6125;59.628;17.852;2023-07-13T03:41:57;5.97;;;3.43;;
12122;SDS011;6125;59.628;17.852;2023-07-13T03:44:24;4.77;;;3.00;;
12122;SDS011;6125;59.628;17.852;2023-07-13T03:46:51;5.93;;;3.07;;
12122;SDS011;6125;59.628;17.852;2023-07-13T03:49:19;7.23;;;3.00;;
12122;SDS011;6125;59.628;17.852;2023-07-13T03:51:46;5.00;;;3.07;;
12122;SDS011;6125;59.628;17.852;2023-07-13T03:54:14;3.60;;;2.97;;
12122;SDS011;6125;59.628;17.852;2023-07-13T03:56:42;3.37;;;2.90;;
12122;SDS011;6125;59.628;17.852;2023-07-13T03:59:10;6.43;;;2.97;;
12122;SDS011;6125;59.628;17.852;2023-07-13T04:01:38;6.20;;;3.60;;
12122;SDS011;6125;59.628;17.852;2023-07-13T04:04:05;8.37;;;3.47;;
12122;SDS011;6125;59.628;17.852;2023-07-13T04:06:33;3.00;;;2.70;;
12122;SDS011;6125;59.628;17.852;2023-07-13T04:09:02;3.27;;;2.97;;
12122;SDS011;6125;59.628;17.852;2023-07-13T04:11:30;5.37;;;3.10;;
12122;SDS011;6125;59.628;17.852;2023-07-13T04:14:00;3.63;;;2.80;;
12122;SDS011;6125;59.628;17.852;2023-07-13T04:16:27;5.30;;;2.70;;
12122;SDS011;6125;59.628;17.852;2023-07-13T04:18:55;4.43;;;2.47;;
12122;SDS011;6125;59.628;17.852;2023-07-13T04:21:25;6.53;;;3.10;;
12122;SDS011;6125;59.628;17.852;2023-07-13T04:23:52;4.27;;;2.50;;
12122;SDS011;6125;59.628;17.852;2023-07-13T04:26:21;4.10;;;2.40;;
12122;SDS011;6125;59.628;17.852;2023-07-13T04:28:49;6.93;;;3.33;;
12122;SDS011;6125;59.628;17.852;2023-07-13T04:31:18;4.40;;;2.80;;
12122;SDS011;6125;59.628;17.852;2023-07-13T04:33:46;6.50;;;2.73;;
12122;SDS011;6125;59.628;17.852;2023-07-13T04:36:14;6.37;;;2.60;;
12122;SDS011;6125;59.628;17.852;2023-07-13T04:38:41;5.03;;;2.50;;
12122;SDS011;6125;59.628;17.852;2023-07-13T04:41:08;4.93;;;2.23;;
12122;SDS011;6125;59.628;17.852;2023-07-13T04:43:36;7.60;;;2.70;;
12122;SDS011;6125;59.628;17.852;2023-07-13T04:46:04;3.63;;;2.37;;
12122;SDS011;6125;59.628;17.852;2023-07-13T04:48:33;3.77;;;2.40;;
12122;SDS011;6125;59.628;17.852;2023-07-13T04:51:01;4.67;;;2.50;;
12122;SDS011;6125;59.628;17.852;2023-07-13T04:53:28;5.13;;;2.30;;
12122;SDS011;6125;59.628;17.852;2023-07-13T04:55:56;4.10;;;2.23;;
12122;SDS011;6125;59.628;17.852;2023-07-13T04:58:23;3.40;;;1.90;;
12122;SDS011;6125;59.628;17.852;2023-07-13T05:00:51;4.37;;;2.43;;
12122;SDS011;6125;59.628;17.852;2023-07-13T05:03:19;6.47;;;2.57;;
12122;SDS011;6125;59.628;17.852;2023-07-13T05:05:55;5.43;;;2.23;;
12122;SDS011;6125;59.628;17.852;2023-07-13T05:08:23;5.50;;;2.20;;
12122;SDS011;6125;59.628;17.852;2023-07-13T05:10:50;4.43;;;2.07;;
12122;SDS011;6125;59.628;17.852;2023-07-13T05:13:18;4.57;;;2.43;;
12122;SDS011;6125;59.628;17.852;2023-07-13T05:15:45;5.37;;;2.23;;
12122;SDS011;6125;59.628;17.852;2023-07-13T05:18:13;3.93;;;2.47;;
12122;SDS011;6125;59.628;17.852;2023-07-13T05:20:40;7.13;;;2.43;;
12122;SDS011;6125;59.628;17.852;2023-07-13T05:23:09;4.97;;;2.00;;
12122;SDS011;6125;59.628;17.852;2023-07-13T05:25:36;6.20;;;2.40;;
12122;SDS011;6125;59.628;17.852;2023-07-13T05:28:03;8.60;;;2.40;;
12122;SDS011;6125;59.628;17.852;2023-07-13T05:30:31;7.03;;;2.40;;
12122;SDS011;6125;59.628;17.852;2023-07-13T05:32:58;4.83;;;2.17;;
12122;SDS011;6125;59.628;17.852;2023-07-13T05:35:26;4.87;;;2.10;;
12122;SDS011;6125;59.628;17.852;2023-07-13T05:38:01;5.33;;;2.17;;
12122;SDS011;6125;59.628;17.852;2023-07-13T05:40:37;4.20;;;2.20;;
12122;SDS011;6125;59.628;17.852;2023-07-13T05:43:04;3.73;;;2.27;;
12122;SDS011;6125;59.628;17.852;2023-07-13T05:45:31;7.63;;;2.40;;
12122;SDS011;6125;59.628;17.852;2023-07-13T05:47:59;5.20;;;2.27;;
12122;SDS011;6125;59.628;17.852;2023-07-13T05:50:26;5.87;;;1.93;;
12122;SDS011;6125;59.628;17.852;2023-07-13T05:52:53;5.20;;;2.20;;
12122;SDS011;6125;59.628;17.852;2023-07-13T05:55:21;4.43;;;1.90;;
12122;SDS011;6125;59.628;17.852;2023-07-13T05:57:50;4.30;;;2.00;;
12122;SDS011;6125;59.628;17.852;2023-07-13T06:00:17;5.87;;;1.83;;
12122;SDS011;6125;59.628;17.852;2023-07-13T06:02:45;5.63;;;2.10;;
12122;SDS011;6125;59.628;17.852;2023-07-13T06:05:12;4.57;;;1.83;;
12122;SDS011;6125;59.628;17.852;2023-07-13T06:07:40;3.37;;;2.10;;
12122;SDS011;6125;59.628;17.852;2023-07-13T06:10:08;5.53;;;2.10;;
12122;SDS011;6125;59.628;17.852;2023-07-13T06:12:36;4.07;;;1.80;;
12122;SDS011;6125;59.628;17.852;2023-07-13T06:15:05;3.93;;;1.63;;
12122;SDS011;6125;59.628;17.852;2023-07-13T06:17:33;5.20;;;1.83;;
12122;SDS011;6125;59.628;17.852;2023-07-13T06:20:00;3.57;;;1.80;;
12122;SDS011;6125;59.628;17.852;2023-07-13T06:22:28;4.73;;;1.93;;
12122;SDS011;6125;59.628;17.852;2023-07-13T06:24:55;3.87;;;1.80;;
12122;SDS011;6125;59.628;17.852;2023-07-13T06:27:22;4.87;;;1.70;;
12122;SDS011;6125;59.628;17.852;2023-07-13T06:29:50;3.97;;;1.80;;
12122;SDS011;6125;59.628;17.852;2023-07-13T06:32:18;3.07;;;2.17;;
12122;SDS011;6125;59.628;17.852;2023-07-13T06:34:46;4.57;;;1.87;;
12122;SDS011;6125;59.628;17.852;2023-07-13T06:37:13;5.37;;;1.90;;
12122;SDS011;6125;59.628;17.852;2023-07-13T06:39:40;3.10;;;1.93;;
12122;SDS011;6125;59.628;17.852;2023-07-13T06:42:08;3.47;;;1.70;;
12122;SDS011;6125;59.628;17.852;2023-07-13T06:44:36;3.30;;;1.70;;
12122;SDS011;6125;59.628;17.852;2023-07-13T06:47:03;6.43;;;1.80;;
12122;SDS011;6125;59.628;17.852;2023-07-13T06:49:33;6.53;;;1.90;;
12122;SDS011;6125;59.628;17.852;2023-07-13T06:52:00;3.40;;;1.70;;
12122;SDS011;6125;59.628;17.852;2023-07-13T06:54:27;4.93;;;1.70;;
12122;SDS011;6125;59.628;17.852;2023-07-13T06:56:54;5.90;;;1.73;;
12122;SDS011;6125;59.628;17.852;2023-07-13T06:59:21;3.07;;;1.73;;
12122;SDS011;6125;59.628;17.852;2023-07-13T07:01:49;4.87;;;2.10;;
12122;SDS011;6125;59.628;17.852;2023-07-13T07:04:16;4.50;;;1.90;;
12122;SDS011;6125;59.628;17.852;2023-07-13T07:06:44;3.33;;;1.70;;
12122;SDS011;6125;59.628;17.852;2023-07-13T07:09:12;3.23;;;1.37;;
12122;SDS011;6125;59.628;17.852;2023-07-13T07:11:41;5.73;;;1.80;;
12122;SDS011;6125;59.628;17.852;2023-07-13T07:14:09;5.80;;;1.70;;
12122;SDS011;6125;59.628;17.852;2023-07-13T07:16:36;4.27;;;1.67;;
12122;SDS011;6125;59.628;17.852;2023-07-13T07:19:03;3.97;;;1.60;;
12122;SDS011;6125;59.628;17.852;2023-07-13T07:21:30;3.23;;;1.80;;
12122;SDS011;6125;59.628;17.852;2023-07-13T07:23:59;6.93;;;1.87;;
12122;SDS011;6125;59.628;17.852;2023-07-13T07:26:28;4.83;;;1.60;;
12122;SDS011;6125;59.628;17.852;2023-07-13T07:28:55;2.47;;;1.60;;
12122;SDS011;6125;59.628;17.852;2023-07-13T07:31:22;4.13;;;1.80;;
12122;SDS011;6125;59.628;17.852;2023-07-13T07:33:50;6.60;;;2.00;;
12122;SDS011;6125;59.628;17.852;2023-07-13T07:36:17;4.40;;;2.00;;
12122;SDS011;6125;59.628;17.852;2023-07-13T07:38:44;7.73;;;1.93;;
12122;SDS011;6125;59.628;17.852;2023-07-13T07:41:13;3.00;;;1.67;;
12122;SDS011;6125;59.628;17.852;2023-07-13T07:43:41;3.37;;;1.47;;
12122;SDS011;6125;59.628;17.852;2023-07-13T07:46:08;5.40;;;1.70;;
12122;SDS011;6125;59.628;17.852;2023-07-13T07:48:35;4.77;;;1.80;;
12122;SDS011;6125;59.628;17.852;2023-07-13T07:51:02;3.20;;;1.60;;
12122;SDS011;6125;59.628;17.852;2023-07-13T07:53:30;3.97;;;1.80;;
12122;SDS011;6125;59.628;17.852;2023-07-13T07:55:57;4.37;;;1.63;;
12122;SDS011;6125;59.628;17.852;2023-07-13T07:58:25;4.03;;;1.60;;
12122;SDS011;6125;59.628;17.852;2023-07-13T08:00:53;3.97;;;1.70;;
12122;SDS011;6125;59.628;17.852;2023-07-13T08:03:20;6.03;;;2.00;;
12122;SDS011;6125;59.628;17.852;2023-07-13T08:05:47;7.27;;;1.70;;
12122;SDS011;6125;59.628;17.852;2023-07-13T08:08:15;3.23;;;1.60;;
12122;SDS011;6125;59.628;17.852;2023-07-13T08:10:42;5.83;;;1.60;;
12122;SDS011;6125;59.628;17.852;2023-07-13T08:13:09;3.83;;;1.90;;
12122;SDS011;6125;59.628;17.852;2023-07-13T08:15:38;4.47;;;2.23;;
12122;SDS011;6125;59.628;17.852;2023-07-13T08:18:05;4.90;;;1.60;;
12122;SDS011;6125;59.628;17.852;2023-07-13T08:20:36;2.97;;;1.60;;
12122;SDS011;6125;59.628;17.852;2023-07-13T08:23:03;4.93;;;1.60;;
12122;SDS011;6125;59.628;17.852;2023-07-13T08:25:30;3.97;;;1.90;;
12122;SDS011;6125;59.628;17.852;2023-07-13T08:27:58;4.67;;;1.70;;
12122;SDS011;6125;59.628;17.852;2023-07-13T08:30:25;4.93;;;1.40;;
12122;SDS011;6125;59.628;17.852;2023-07-13T08:32:54;5.77;;;1.83;;
12122;SDS011;6125;59.628;17.852;2023-07-13T08:35:21;3.60;;;1.57;;
12122;SDS011;6125;59.628;17.852;2023-07-13T08:37:50;6.20;;;1.53;;
12122;SDS011;6125;59.628;17.852;2023-07-13T08:40:18;8.93;;;1.60;;
12122;SDS011;6125;59.628;17.852;2023-07-13T08:42:52;2.77;;;1.63;;
12122;SDS011;6125;59.628;17.852;2023-07-13T08:45:22;6.67;;;1.67;;
12122;SDS011;6125;59.628;17.852;2023-07-13T08:47:57;3.50;;;1.77;;
12122;SDS011;6125;59.628;17.852;2023-07-13T08:50:30;6.57;;;1.60;;
12122;SDS011;6125;59.628;17.852;2023-07-13T08:52:59;4.13;;;1.73;;
12122;SDS011;6125;59.628;17.852;2023-07-13T08:55:29;3.73;;;1.33;;
12122;SDS011;6125;59.628;17.852;2023-07-13T08:58:02;4.37;;;1.50;;
12122;SDS011;6125;59.628;17.852;2023-07-13T09:00:38;5.10;;;2.00;;
12122;SDS011;6125;59.628;17.852;2023-07-13T09:03:18;4.03;;;1.57;;
12122;SDS011;6125;59.628;17.852;2023-07-13T09:05:52;3.10;;;1.40;;
12122;SDS011;6125;59.628;17.852;2023-07-13T09:08:30;5.30;;;1.70;;
12122;SDS011;6125;59.628;17.852;2023-07-13T09:11:16;3.17;;;1.30;;
12122;SDS011;6125;59.628;17.852;2023-07-13T09:13:57;4.53;;;1.57;;
12122;SDS011;6125;59.628;17.852;2023-07-13T09:16:31;4.07;;;1.77;;
12122;SDS011;6125;59.628;17.852;2023-07-13T09:19:02;4.80;;;1.77;;
12122;SDS011;6125;59.628;17.852;2023-07-13T09:21:34;5.00;;;1.60;;
12122;SDS011;6125;59.628;17.852;2023-07-13T09:24:21;10.37;;;2.20;;
12122;SDS011;6125;59.628;17.852;2023-07-13T09:26:55;5.93;;;1.40;;
12122;SDS011;6125;59.628;17.852;2023-07-13T09:29:26;4.30;;;1.47;;
12122;SDS011;6125;59.628;17.852;2023-07-13T09:31:57;4.77;;;1.63;;
12122;SDS011;6125;59.628;17.852;2023-07-13T09:34:29;3.57;;;1.30;;
12122;SDS011;6125;59.628;17.852;2023-07-13T09:36:57;3.70;;;1.70;;
12122;SDS011;6125;59.628;17.852;2023-07-13T09:39:25;3.07;;;1.70;;
12122;SDS011;6125;59.628;17.852;2023-07-13T09:41:57;2.50;;;1.27;;
12122;SDS011;6125;59.628;17.852;2023-07-13T09:44:33;5.87;;;1.70;;
12122;SDS011;6125;59.628;17.852;2023-07-13T09:47:03;3.60;;;1.53;;
12122;SDS011;6125;59.628;17.852;2023-07-13T09:49:44;5.17;;;1.50;;
12122;SDS011;6125;59.628;17.852;2023-07-13T09:52:12;6.67;;;1.47;;
12122;SDS011;6125;59.628;17.852;2023-07-13T09:54:44;3.50;;;1.47;;
12122;SDS011;6125;59.628;17.852;2023-07-13T09:57:14;4.23;;;1.77;;
12122;SDS011;6125;59.628;17.852;2023-07-13T09:59:49;3.57;;;1.50;;
12122;SDS011;6125;59.628;17.852;2023-07-13T10:02:28;2.00;;;1.50;;
12122;SDS011;6125;59.628;17.852;2023-07-13T10:05:00;2.70;;;1.57;;
12122;SDS011;6125;59.628;17.852;2023-07-13T10:07:29;3.57;;;1.27;;
12122;SDS011;6125;59.628;17.852;2023-07-13T10:09:58;7.07;;;1.83;;
12122;SDS011;6125;59.628;17.852;2023-07-13T10:12:28;2.60;;;1.43;;
12122;SDS011;6125;59.628;17.852;2023-07-13T10:14:57;3.33;;;1.40;;
12122;SDS011;6125;59.628;17.852;2023-07-13T10:17:28;2.77;;;1.30;;
12122;SDS011;6125;59.628;17.852;2023-07-13T10:20:01;2.73;;;1.63;;
12122;SDS011;6125;59.628;17.852;2023-07-13T10:22:33;4.40;;;1.90;;
12122;SDS011;6125;59.628;17.852;2023-07-13T10:25:12;3.00;;;1.50;;
12122;SDS011;6125;59.628;17.852;2023-07-13T10:27:43;3.27;;;1.40;;
12122;SDS011;6125;59.628;17.852;2023-07-13T10:30:13;2.73;;;1.33;;
12122;SDS011;6125;59.628;17.852;2023-07-13T10:32:45;3.43;;;1.53;;
12122;SDS011;6125;59.628;17.852;2023-07-13T10:35:15;9.57;;;1.60;;
12122;SDS011;6125;59.628;17.852;2023-07-13T10:37:45;3.20;;;1.43;;
12122;SDS011;6125;59.628;17.852;2023-07-13T10:40:18;2.50;;;1.60;;
12122;SDS011;6125;59.628;17.852;2023-07-13T10:42:51;3.07;;;1.50;;
12122;SDS011;6125;59.628;17.852;2023-07-13T10:45:21;5.03;;;1.23;;
12122;SDS011;6125;59.628;17.852;2023-07-13T10:47:51;2.37;;;1.17;;
12122;SDS011;6125;59.628;17.852;2023-07-13T10:50:23;2.00;;;1.40;;
12122;SDS011;6125;59.628;17.852;2023-07-13T10:52:53;2.63;;;1.30;;
12122;SDS011;6125;59.628;17.852;2023-07-13T10:55:33;2.67;;;1.33;;
12122;SDS011;6125;59.628;17.852;2023-07-13T10:58:02;4.07;;;1.30;;
12122;SDS011;6125;59.628;17.852;2023-07-13T11:00:43;3.13;;;1.20;;
12122;SDS011;6125;59.628;17.852;2023-07-13T11:03:14;3.93;;;1.53;;
12122;SDS011;6125;59.628;17.852;2023-07-13T11:05:45;3.97;;;1.40;;
12122;SDS011;6125;59.628;17.852;2023-07-13T11:08:19;5.13;;;1.70;;
12122;SDS011;6125;59.628;17.852;2023-07-13T11:10:58;3.93;;;1.43;;
12122;SDS011;6125;59.628;17.852;2023-07-13T11:13:38;3.07;;;1.43;;
12122;SDS011;6125;59.628;17.852;2023-07-13T11:16:33;1.37;;;1.23;;
12122;SDS011;6125;59.628;17.852;2023-07-13T11:19:24;2.03;;;1.20;;
12122;SDS011;6125;59.628;17.852;2023-07-13T11:22:13;4.33;;;1.50;;
12122;SDS011;6125;59.628;17.852;2023-07-13T11:24:54;4.63;;;1.50;;
12122;SDS011;6125;59.628;17.852;2023-07-13T11:27:34;2.40;;;1.37;;
12122;SDS011;6125;59.628;17.852;2023-07-13T11:30:07;2.33;;;1.23;;
12122;SDS011;6125;59.628;17.852;2023-07-13T11:32:50;1.73;;;1.30;;
12122;SDS011;6125;59.628;17.852;2023-07-13T11:35:31;3.93;;;1.40;;
12122;SDS011;6125;59.628;17.852;2023-07-13T11:38:03;4.53;;;1.50;;
12122;SDS011;6125;59.628;17.852;2023-07-13T11:40:41;4.00;;;1.40;;
12122;SDS011;6125;59.628;17.852;2023-07-13T11:43:11;2.17;;;1.30;;
12122;SDS011;6125;59.628;17.852;2023-07-13T11:45:40;6.10;;;1.40;;
12122;SDS011;6125;59.628;17.852;2023-07-13T11:48:21;2.27;;;1.47;;
12122;SDS011;6125;59.628;17.852;2023-07-13T11:50:54;3.17;;;1.30;;
12122;SDS011;6125;59.628;17.852;2023-07-13T11:53:27;3.10;;;1.50;;
12122;SDS011;6125;59.628;17.852;2023-07-13T11:55:56;2.20;;;1.27;;
12122;SDS011;6125;59.628;17.852;2023-07-13T11:58:25;3.30;;;1.43;;
12122;SDS011;6125;59.628;17.852;2023-07-13T12:00:55;2.93;;;1.40;;
12122;SDS011;6125;59.628;17.852;2023-07-13T12:03:27;2.67;;;1.43;;
12122;SDS011;6125;59.628;17.852;2023-07-13T12:05:55;3.50;;;1.33;;
12122;SDS011;6125;59.628;17.852;2023-07-13T12:08:24;3.47;;;1.40;;
12122;SDS011;6125;59.628;17.852;2023-07-13T12:11:00;1.80;;;1.30;;
12122;SDS011;6125;59.628;17.852;2023-07-13T12:13:35;3.17;;;1.53;;
12122;SDS011;6125;59.628;17.852;2023-07-13T12:18:52;3.20;;;1.50;;
12122;SDS011;6125;59.628;17.852;2023-07-13T12:21:22;4.30;;;1.70;;
12122;SDS011;6125;59.628;17.852;2023-07-13T12:23:57;3.03;;;1.43;;
12122;SDS011;6125;59.628;17.852;2023-07-13T12:26:27;3.43;;;1.27;;
12122;SDS011;6125;59.628;17.852;2023-07-13T12:28:55;5.00;;;1.73;;
12122;SDS011;6125;59.628;17.852;2023-07-13T12:31:29;3.30;;;1.70;;
12122;SDS011;6125;59.628;17.852;2023-07-13T12:34:01;3.43;;;1.40;;
12122;SDS011;6125;59.628;17.852;2023-07-13T12:36:31;4.67;;;1.53;;
12122;SDS011;6125;59.628;17.852;2023-07-13T12:39:02;2.33;;;1.50;;
12122;SDS011;6125;59.628;17.852;2023-07-13T12:41:39;7.80;;;1.70;;
12122;SDS011;6125;59.628;17.852;2023-07-13T12:44:10;4.77;;;1.57;;
12122;SDS011;6125;59.628;17.852;2023-07-13T12:46:39;3.67;;;1.60;;
12122;SDS011;6125;59.628;17.852;2023-07-13T12:49:16;2.77;;;1.60;;
12122;SDS011;6125;59.628;17.852;2023-07-13T12:51:45;4.50;;;1.70;;
12122;SDS011;6125;59.628;17.852;2023-07-13T12:54:18;4.67;;;1.43;;
12122;SDS011;6125;59.628;17.852;2023-07-13T12:56:48;2.50;;;1.43;;
12122;SDS011;6125;59.628;17.852;2023-07-13T12:59:19;4.73;;;1.43;;
12122;SDS011;6125;59.628;17.852;2023-07-13T13:01:47;4.07;;;1.93;;
12122;SDS011;6125;59.628;17.852;2023-07-13T13:04:16;3.63;;;1.50;;
12122;SDS011;6125;59.628;17.852;2023-07-13T13:06:46;5.17;;;1.80;;
12122;SDS011;6125;59.628;17.852;2023-07-13T13:09:14;2.07;;;1.37;;
12122;SDS011;6125;59.628;17.852;2023-07-13T13:11:45;3.40;;;1.43;;
12122;SDS011;6125;59.628;17.852;2023-07-13T13:14:12;4.13;;;1.50;;
12122;SDS011;6125;59.628;17.852;2023-07-13T13:16:46;2.30;;;1.60;;
12122;SDS011;6125;59.628;17.852;2023-07-13T13:19:16;2.87;;;1.10;;
12122;SDS011;6125;59.628;17.852;2023-07-13T13:21:46;4.00;;;1.50;;
12122;SDS011;6125;59.628;17.852;2023-07-13T13:24:16;4.87;;;1.30;;
12122;SDS011;6125;59.628;17.852;2023-07-13T13:26:46;4.63;;;1.57;;
12122;SDS011;6125;59.628;17.852;2023-07-13T13:29:15;1.90;;;1.30;;
12122;SDS011;6125;59.628;17.852;2023-07-13T13:31:43;4.57;;;1.43;;
12122;SDS011;6125;59.628;17.852;2023-07-13T13:34:14;3.20;;;1.50;;
12122;SDS011;6125;59.628;17.852;2023-07-13T13:36:43;1.67;;;1.30;;
12122;SDS011;6125;59.628;17.852;2023-07-13T13:39:18;1.87;;;1.30;;
12122;SDS011;6125;59.628;17.852;2023-07-13T13:41:49;2.60;;;1.43;;
12122;SDS011;6125;59.628;17.852;2023-07-13T13:44:19;2.20;;;1.27;;
12122;SDS011;6125;59.628;17.852;2023-07-13T13:46:47;2.87;;;1.30;;
12122;SDS011;6125;59.628;17.852;2023-07-13T13:49:17;3.47;;;1.30;;
12122;SDS011;6125;59.628;17.852;2023-07-13T13:51:46;3.13;;;1.63;;
12122;SDS011;6125;59.628;17.852;2023-07-13T13:54:13;2.37;;;1.50;;
12122;SDS011;6125;59.628;17.852;2023-07-13T13:56:42;2.13;;;1.60;;
12122;SDS011;6125;59.628;17.852;2023-07-13T13:59:12;2.13;;;1.47;;
12122;SDS011;6125;59.628;17.852;2023-07-13T14:01:40;2.27;;;1.37;;
12122;SDS011;6125;59.628;17.852;2023-07-13T14:04:08;3.30;;;1.80;;
12122;SDS011;6125;59.628;17.852;2023-07-13T14:06:42;1.57;;;1.30;;
12122;SDS011;6125;59.628;17.852;2023-07-13T14:09:11;4.57;;;1.40;;
12122;SDS011;6125;59.628;17.852;2023-07-13T14:11:40;3.27;;;1.40;;
12122;SDS011;6125;59.628;17.852;2023-07-13T14:14:09;1.57;;;1.20;;
12122;SDS011;6125;59.628;17.852;2023-07-13T14:16:42;3.23;;;1.30;;
12122;SDS011;6125;59.628;17.852;2023-07-13T14:19:10;4.60;;;1.50;;
12122;SDS011;6125;59.628;17.852;2023-07-13T14:21:39;3.03;;;1.47;;
12122;SDS011;6125;59.628;17.852;2023-07-13T14:24:07;1.60;;;1.40;;
12122;SDS011;6125;59.628;17.852;2023-07-13T14:26:36;3.63;;;1.50;;
12122;SDS011;6125;59.628;17.852;2023-07-13T14:29:11;1.67;;;1.13;;
12122;SDS011;6125;59.628;17.852;2023-07-13T14:31:42;3.43;;;1.47;;
12122;SDS011;6125;59.628;17.852;2023-07-13T14:34:10;2.57;;;1.10;;
12122;SDS011;6125;59.628;17.852;2023-07-13T14:36:40;1.90;;;1.30;;
12122;SDS011;6125;59.628;17.852;2023-07-13T14:39:11;2.23;;;1.40;;
12122;SDS011;6125;59.628;17.852;2023-07-13T14:41:41;3.03;;;1.20;;
12122;SDS011;6125;59.628;17.852;2023-07-13T14:44:11;3.30;;;1.40;;
12122;SDS011;6125;59.628;17.852;2023-07-13T14:46:40;2.10;;;1.20;;
12122;SDS011;6125;59.628;17.852;2023-07-13T14:49:11;1.73;;;1.57;;
12122;SDS011;6125;59.628;17.852;2023-07-13T14:51:46;1.33;;;1.00;;
12122;SDS011;6125;59.628;17.852;2023-07-13T14:54:13;3.00;;;1.43;;
12122;SDS011;6125;59.628;17.852;2023-07-13T14:56:41;1.17;;;1.07;;
12122;SDS011;6125;59.628;17.852;2023-07-13T14:59:08;5.77;;;2.17;;
12122;SDS011;6125;59.628;17.852;2023-07-13T15:01:35;2.80;;;2.10;;
12122;SDS011;6125;59.628;17.852;2023-07-13T15:04:05;4.90;;;1.60;;
12122;SDS011;6125;59.628;17.852;2023-07-13T15:06:39;4.10;;;1.70;;